»·PEaware :: N851TX KELP-KSAT

N851TX :: KELP-KSAT

FLIGHT INFORMATION

Flight Status: Arrived
Operator: Privately registered:
United States
More flights under this callsign
Pilot: Andrew J. (13363)
Aircraft: SOCATA TBM-900
(TBM9)
More flights by this aircraft type
Origin: KELP El Paso Intl
United States
Destination: KSAT San Antonio Intl
United States
More flights between these airports :: More routes between these airports
Route: +ELP J2 FST CSI2
File this flight plan on PilotEdge
Remarks:
Altitude:
(Current/Filed)
31,000ft
Speed:
(Current/Filed)
315kts
Departed: 07-Apr-18 09:05 PM
Arrived: 07-Apr-18 10:09 PM
Distance/Time
Traveled:
430nm/1:04
Distance/Time
To Go:
Arrived

Flight Plot

Page will automatically refresh every two minutes.

Flight plan parsing failed; only flown route is shown


Map Options




Map Legend


Flown Route
Filed Route
Departure Airport
Arrival Airport
Navaid (VOR, NDB)
Fix

Horizontal Profiles

Position Reports

Time Latitude Longitude Heading Altitude Ground
Speed
07-Apr-18 20:52 31.798347 -106.376175 260 3938ft 0kts
07-Apr-18 20:53 31.798347 -106.376175 260 3938ft 0kts
07-Apr-18 20:54 31.798347 -106.376175 260 3938ft 0kts
07-Apr-18 20:55 31.798347 -106.376175 260 3938ft 0kts
07-Apr-18 20:56 31.798347 -106.376175 260 3938ft 0kts
07-Apr-18 20:57 31.798347 -106.376175 260 3938ft 0kts
07-Apr-18 20:58 31.798347 -106.376176 263 3938ft 0kts
07-Apr-18 20:59 31.798843 -106.376257 9 3938ft 8kts
07-Apr-18 21:00 31.798816 -106.372187 66 3938ft 16kts
07-Apr-18 21:01 31.799330 -106.366731 96 3938ft 18kts
07-Apr-18 21:02 31.799035 -106.361138 91 3938ft 15kts
07-Apr-18 21:03 31.800705 -106.361355 272 3938ft 33kts
07-Apr-18 21:04 31.798095 -106.396359 238 4729ft 146kts
07-Apr-18 21:05 31.769726 -106.416428 139 6866ft 154kts
07-Apr-18 21:06 31.744643 -106.372498 127 8650ft 167kts
07-Apr-18 21:07 31.719304 -106.326690 127 10775ft 171kts
07-Apr-18 21:08 31.693466 -106.278345 127 12614ft 181kts
07-Apr-18 21:09 31.666855 -106.226504 127 14542ft 190kts
07-Apr-18 21:10 31.639616 -106.171650 127 16312ft 200kts
07-Apr-18 21:11 31.608499 -106.109214 127 16950ft 258kts
07-Apr-18 21:12 31.567212 -106.031156 127 16924ft 298kts
07-Apr-18 21:13 31.528505 -105.955998 127 19259ft 234kts
07-Apr-18 21:14 31.501606 -105.897503 127 21256ft 202kts
07-Apr-18 21:15 31.472315 -105.833776 127 22156ft 237kts
07-Apr-18 21:16 31.441053 -105.764782 127 23928ft 244kts
07-Apr-18 21:17 31.414434 -105.705267 127 25297ft 253kts
07-Apr-18 21:18 31.381372 -105.630643 127 26939ft 263kts
07-Apr-18 21:19 31.341595 -105.540252 127 28654ft 274kts
07-Apr-18 21:20 31.306310 -105.459717 127 29996ft 283kts
07-Apr-18 21:21 31.268708 -105.374787 127 30900ft 307kts
07-Apr-18 21:22 31.233230 -105.297371 127 30928ft 344kts
07-Apr-18 21:23 31.192830 -105.191090 99 30922ft 380kts
07-Apr-18 21:24 31.186225 -105.066260 98 30916ft 392kts
07-Apr-18 21:25 31.172990 -104.939022 98 30916ft 398kts
07-Apr-18 21:26 31.161293 -104.827743 98 30917ft 401kts
07-Apr-18 21:27 31.151048 -104.731067 95 30934ft 428kts
07-Apr-18 21:28 31.135917 -104.589437 95 30936ft 450kts
07-Apr-18 21:29 31.120046 -104.442570 95 30937ft 461kts
07-Apr-18 21:30 31.103786 -104.293649 96 30905ft 466kts
07-Apr-18 21:31 31.089721 -104.166247 96 30910ft 465kts
07-Apr-18 21:32 31.073082 -104.016927 96 30915ft 466kts
07-Apr-18 21:33 31.056204 -103.867065 96 30920ft 467kts
07-Apr-18 21:34 31.039101 -103.716798 96 30925ft 468kts
07-Apr-18 21:35 31.021825 -103.566596 96 30930ft 470kts
07-Apr-18 21:36 31.004254 -103.415408 96 30936ft 471kts
07-Apr-18 21:37 30.986541 -103.264574 97 30906ft 470kts
07-Apr-18 21:38 30.968753 -103.114646 97 30911ft 468kts
07-Apr-18 21:39 30.949890 -102.964764 106 30910ft 467kts
07-Apr-18 21:40 30.912262 -102.820855 110 30922ft 466kts
07-Apr-18 21:41 30.876545 -102.682747 110 30921ft 467kts
07-Apr-18 21:42 30.838998 -102.538297 110 30926ft 467kts
07-Apr-18 21:43 30.792870 -102.361821 110 30933ft 469kts
07-Apr-18 21:44 30.702420 -102.018870 111 30911ft 464kts
07-Apr-18 21:45 30.614692 -101.690067 111 30923ft 466kts
07-Apr-18 21:46 30.521672 -101.345396 111 30931ft 469kts
07-Apr-18 21:47 30.436490 -101.033253 112 30911ft 464kts
07-Apr-18 21:48 30.349301 -100.717092 112 30923ft 465kts
07-Apr-18 21:49 30.245274 -100.344132 112 30931ft 469kts
07-Apr-18 21:50 30.148818 -100.002373 113 30914ft 464kts
07-Apr-18 21:51 30.034204 -99.601123 113 30929ft 466kts
07-Apr-18 21:52 29.925594 -99.225382 114 30906ft 465kts
07-Apr-18 21:53 29.889007 -99.130182 132 30898ft 444kts
07-Apr-18 21:54 29.823753 -99.009166 132 29410ft 453kts
07-Apr-18 21:55 29.760681 -98.890914 134 26857ft 420kts
07-Apr-18 21:56 29.701238 -98.779875 135 24188ft 399kts
07-Apr-18 21:57 29.643752 -98.675662 143 21547ft 371kts
07-Apr-18 21:58 29.581152 -98.597814 143 19102ft 318kts
07-Apr-18 21:59 29.515372 -98.537197 143 16414ft 297kts
07-Apr-18 22:00 29.459444 -98.470954 125 13675ft 289kts
07-Apr-18 22:01 29.423515 -98.391616 86 10718ft 284kts
07-Apr-18 22:02 29.466774 -98.341196 336 7800ft 241kts
07-Apr-18 22:03 29.469200 -98.407069 239 4588ft 239kts
07-Apr-18 22:04 29.430264 -98.396292 53 3731ft 169kts
07-Apr-18 22:05 29.470080 -98.407166 338 2766ft 135kts
07-Apr-18 22:06 29.498583 -98.424657 321 1908ft 112kts
07-Apr-18 22:07 29.518988 -98.450259 314 1209ft 114kts
07-Apr-18 22:08 29.535840 -98.471910 312 812ft 39kts
07-Apr-18 22:09 29.537236 -98.471250 43 812ft 8kts
07-Apr-18 22:10 29.538066 -98.470421 308 812ft 0kts
07-Apr-18 22:11 29.538066 -98.470421 308 812ft 0kts

Navigation Log

Ident Type
Flight plan parsing failed, navigation log unavailable